createdAt,value
2018-04-28T00:01:24.936Z,14.20
2018-04-28T00:03:52.469Z,14.20
2018-04-28T00:06:19.969Z,14.20
2018-04-28T00:08:47.490Z,14.10
2018-04-28T00:11:14.989Z,14.10
2018-04-28T00:13:42.513Z,14.00
2018-04-28T00:16:11.921Z,14.00
2018-04-28T00:18:40.241Z,14.00
2018-04-28T00:21:07.742Z,14.00
2018-04-28T00:23:49.077Z,13.90
2018-04-28T00:26:16.577Z,13.90
2018-04-28T00:28:44.074Z,13.90
2018-04-28T00:34:12.313Z,13.90
2018-04-28T00:37:04.121Z,13.90
2018-04-28T00:39:33.417Z,13.90
2018-04-28T00:42:00.938Z,13.90
2018-04-28T00:44:30.353Z,13.90
2018-04-28T00:47:08.837Z,13.90
2018-04-28T00:49:36.333Z,13.90
2018-04-28T00:52:03.896Z,13.90
2018-04-28T00:54:35.641Z,13.90
2018-04-28T00:57:16.033Z,13.90
2018-04-28T00:59:45.333Z,13.90
2018-04-28T01:02:13.614Z,13.90
2018-04-28T01:04:44.902Z,13.80
2018-04-28T01:07:16.913Z,13.80
2018-04-28T01:09:44.433Z,13.80
2018-04-28T01:12:11.929Z,13.80
2018-04-28T01:14:41.857Z,13.80
2018-04-28T01:17:21.101Z,13.80
2018-04-28T01:19:50.817Z,13.80
2018-04-28T01:22:26.734Z,13.80
2018-04-28T01:24:54.252Z,13.80
2018-04-28T01:27:28.453Z,13.70
2018-04-28T01:33:27.321Z,13.70
2018-04-28T01:38:50.457Z,13.60
2018-04-28T01:41:39.573Z,13.60
2018-04-28T01:44:15.681Z,13.60
2018-04-28T01:46:46.896Z,13.60
2018-04-28T01:49:30.869Z,13.50
2018-04-28T01:51:59.262Z,13.50
2018-04-28T01:57:23.334Z,13.40
2018-04-28T02:00:04.205Z,13.30
2018-04-28T02:02:47.361Z,13.30
2018-04-28T02:08:23.350Z,13.30
2018-04-28T02:10:52.573Z,13.20
2018-04-28T02:13:31.901Z,13.30
2018-04-28T02:16:02.245Z,13.30
2018-04-28T02:22:00.097Z,13.30
2018-04-28T02:24:34.329Z,13.20
2018-04-28T02:27:05.822Z,13.20
2018-04-28T02:29:34.952Z,13.10
2018-04-28T02:32:21.005Z,13.00
2018-04-28T02:34:49.953Z,13.00
2018-04-28T02:40:44.349Z,13.00
2018-04-28T02:43:14.763Z,13.00
2018-04-28T02:45:46.842Z,12.90
2018-04-28T02:51:34.313Z,12.80
2018-04-28T02:54:05.505Z,12.70
2018-04-28T02:59:53.809Z,12.60
2018-04-28T03:02:24.892Z,12.60
2018-04-28T03:04:56.871Z,12.40
2018-04-28T03:07:37.213Z,12.30
2018-04-28T03:13:02.441Z,12.30
2018-04-28T03:15:29.938Z,12.30
2018-04-28T03:17:59.869Z,12.30
2018-04-28T03:20:30.285Z,12.30
2018-04-28T03:23:00.326Z,12.30
2018-04-28T03:25:41.537Z,12.20
2018-04-28T03:28:18.025Z,12.20
2018-04-28T03:30:56.901Z,12.20
2018-04-28T03:33:29.873Z,12.20
2018-04-28T03:36:01.017Z,12.20
2018-04-28T03:38:48.334Z,12.20
2018-04-28T03:41:21.421Z,12.20
2018-04-28T03:43:50.938Z,12.10
2018-04-28T03:46:24.097Z,12.10
2018-04-28T03:48:53.785Z,12.10
2018-04-28T03:51:34.688Z,12.10
2018-04-28T03:54:05.093Z,12.10
2018-04-28T03:56:47.209Z,12.10
2018-04-28T03:59:26.816Z,12.00
2018-04-28T04:05:06.437Z,12.00
2018-04-28T04:07:40.720Z,12.00
2018-04-28T04:10:30.761Z,12.00
2018-04-28T04:12:59.753Z,12.00
2018-04-28T04:15:47.888Z,12.00
2018-04-28T04:18:21.409Z,12.00
2018-04-28T04:20:53.465Z,12.00
2018-04-28T04:26:44.241Z,12.00
2018-04-28T04:29:24.366Z,12.10
2018-04-28T04:32:09.445Z,12.10
2018-04-28T04:37:49.825Z,12.20
2018-04-28T04:43:39.725Z,12.20
2018-04-28T04:46:26.044Z,12.20
2018-04-28T04:48:55.269Z,12.20
2018-04-28T04:51:49.476Z,12.20
2018-04-28T04:54:23.605Z,12.20
2018-04-28T04:56:59.724Z,12.20
2018-04-28T04:59:43.837Z,12.20
2018-04-28T05:02:16.824Z,12.20
2018-04-28T05:05:04.597Z,12.30
2018-04-28T05:07:38.624Z,12.20
2018-04-28T05:10:13.061Z,12.30
2018-04-28T05:16:06.582Z,12.30
2018-04-28T05:18:46.900Z,12.30
2018-04-28T05:24:39.946Z,12.30
2018-04-28T05:27:25.914Z,12.40
2018-04-28T05:30:15.745Z,12.50
2018-04-28T05:36:00.531Z,12.50
2018-04-28T05:38:37.695Z,12.50
2018-04-28T05:41:27.930Z,12.60
2018-04-28T05:44:07.345Z,12.70
2018-04-28T05:46:53.535Z,12.70
2018-04-28T05:49:38.899Z,12.80
2018-04-28T05:52:19.085Z,12.90
2018-04-28T05:55:06.297Z,12.90
2018-04-28T05:57:49.658Z,13.00
2018-04-28T06:00:29.096Z,13.10
2018-04-28T06:03:13.316Z,13.10
2018-04-28T06:08:50.085Z,13.20
2018-04-28T06:11:39.127Z,13.30
2018-04-28T06:14:08.432Z,13.40
2018-04-28T06:16:37.498Z,13.30
2018-04-28T06:19:13.853Z,13.40
2018-04-28T06:21:41.354Z,13.50
2018-04-28T06:24:08.849Z,13.50
2018-04-28T06:26:36.365Z,13.40
2018-04-28T06:29:04.628Z,13.50
2018-04-28T06:31:32.913Z,13.50
2018-04-28T06:34:01.182Z,13.60
2018-04-28T06:36:28.754Z,13.60
2018-04-28T06:38:57.069Z,13.60
2018-04-28T06:41:24.592Z,13.60
2018-04-28T06:43:52.853Z,13.80
2018-04-28T06:46:21.118Z,13.90
2018-04-28T06:48:49.405Z,14.00
2018-04-28T06:51:17.669Z,14.00
2018-04-28T06:53:45.189Z,14.00
2018-04-28T06:56:12.685Z,14.10
2018-04-28T06:58:40.284Z,14.20
2018-04-28T07:01:07.720Z,14.30
2018-04-28T07:03:36.013Z,14.50
2018-04-28T07:06:04.281Z,14.50
2018-04-28T07:08:32.546Z,14.50
2018-04-28T07:11:00.830Z,14.50
2018-04-28T07:13:29.092Z,14.60
2018-04-28T07:15:56.609Z,14.60
2018-04-28T07:18:24.108Z,14.60
2018-04-28T07:20:51.627Z,14.70
2018-04-28T07:23:19.130Z,14.70
2018-04-28T07:25:46.644Z,14.80
2018-04-28T07:28:14.145Z,14.80
2018-04-28T07:30:42.425Z,14.90
2018-04-28T07:33:09.951Z,14.80
2018-04-28T07:35:37.460Z,14.90
2018-04-28T07:38:05.740Z,15.00
2018-04-28T07:40:34.005Z,14.90
2018-04-28T07:43:02.293Z,14.90
2018-04-28T07:45:30.557Z,14.90
2018-04-28T07:47:58.857Z,15.00
2018-04-28T07:50:26.353Z,15.00
2018-04-28T07:52:53.844Z,15.00
2018-04-28T07:55:21.389Z,15.10
2018-04-28T07:57:48.883Z,15.20
2018-04-28T08:00:17.248Z,15.30
2018-04-28T08:02:44.684Z,15.30
2018-04-28T08:05:12.209Z,15.40
2018-04-28T08:07:39.763Z,15.50
2018-04-28T08:10:07.257Z,15.50
2018-04-28T08:12:34.777Z,15.50
2018-04-28T08:15:02.273Z,15.50
2018-04-28T08:17:29.788Z,15.60
2018-04-28T08:19:57.287Z,15.70
2018-04-28T08:22:24.813Z,15.90
2018-04-28T08:24:52.317Z,16.00
2018-04-28T08:27:19.813Z,16.00
2018-04-28T08:29:48.102Z,16.00
2018-04-28T08:32:15.601Z,16.00
2018-04-28T08:34:43.129Z,16.10
2018-04-28T08:37:10.653Z,16.20
2018-04-28T08:39:38.160Z,16.20
2018-04-28T08:42:05.656Z,16.30
2018-04-28T08:44:33.185Z,16.30
2018-04-28T08:47:00.692Z,16.30
2018-04-28T08:49:28.976Z,16.40
2018-04-28T08:51:57.240Z,16.40
2018-04-28T08:54:25.500Z,16.40
2018-04-28T08:56:53.021Z,16.40
2018-04-28T08:59:20.526Z,16.50
2018-04-28T09:01:48.051Z,16.60
2018-04-28T09:04:15.557Z,16.70
2018-04-28T09:06:58.713Z,16.90
2018-04-28T09:09:26.212Z,16.90
2018-04-28T09:11:53.734Z,16.90
2018-04-28T09:14:21.233Z,17.10
2018-04-28T09:16:48.750Z,17.10
2018-04-28T09:19:16.249Z,17.20
2018-04-28T09:21:43.769Z,17.20
2018-04-28T09:24:11.273Z,17.40
2018-04-28T09:26:38.797Z,17.60
2018-04-28T09:29:06.340Z,17.80
2018-04-28T09:31:34.572Z,18.00
2018-04-28T09:34:02.092Z,18.00
2018-04-28T09:36:29.589Z,18.10
2018-04-28T09:38:57.110Z,18.10
2018-04-28T09:41:24.607Z,18.10
2018-04-28T09:43:52.133Z,18.10
2018-04-28T09:46:19.668Z,18.20
2018-04-28T09:48:47.915Z,18.50
2018-04-28T09:51:16.206Z,18.70
2018-04-28T09:53:44.471Z,18.80
2018-04-28T09:56:12.760Z,18.60
2018-04-28T09:58:41.036Z,18.60
2018-04-28T10:01:08.560Z,18.60
2018-04-28T10:03:36.066Z,18.80
2018-04-28T10:06:03.589Z,18.80
2018-04-28T10:08:31.092Z,19.00
2018-04-28T10:10:58.596Z,19.30
2018-04-28T10:13:26.112Z,19.30
2018-04-28T10:15:53.670Z,19.50
2018-04-28T10:18:21.921Z,20.00
2018-04-28T10:20:50.181Z,20.30
2018-04-28T10:23:17.701Z,20.30
2018-04-28T10:25:45.201Z,20.70
2018-04-28T10:28:12.717Z,21.20
2018-04-28T10:30:40.213Z,21.40
2018-04-28T10:33:07.736Z,21.20
2018-04-28T10:35:35.229Z,21.30
2018-04-28T10:38:02.733Z,21.70
2018-04-28T10:40:30.253Z,22.30
2018-04-28T10:42:57.753Z,22.20
2018-04-28T10:45:25.276Z,22.10
2018-04-28T10:47:53.549Z,21.80
2018-04-28T10:50:21.837Z,21.70
2018-04-28T10:52:50.109Z,22.20
2018-04-28T10:55:18.518Z,22.40
2018-04-28T10:57:46.046Z,22.40
2018-04-28T11:00:13.538Z,22.60
2018-04-28T11:02:41.056Z,22.40
2018-04-28T11:05:08.558Z,22.20
2018-04-28T11:07:36.077Z,22.30
2018-04-28T11:10:03.584Z,21.90
2018-04-28T11:12:31.104Z,22.20
2018-04-28T11:14:59.369Z,22.40
2018-04-28T11:17:26.865Z,22.40
2018-04-28T11:19:54.393Z,22.60
2018-04-28T11:22:22.660Z,22.90
2018-04-28T11:24:50.185Z,22.80
2018-04-28T11:27:17.680Z,22.20
2018-04-28T11:29:45.200Z,22.10
2018-04-28T11:32:12.697Z,21.80
2018-04-28T11:34:40.220Z,22.10
2018-04-28T11:37:07.727Z,22.20
2018-04-28T11:39:35.990Z,21.50
2018-04-28T11:42:03.513Z,21.50
2018-04-28T11:44:31.014Z,21.20
2018-04-28T11:46:58.528Z,20.90
2018-04-28T11:49:26.025Z,20.60
2018-04-28T11:51:53.541Z,20.10
2018-04-28T11:54:21.041Z,20.00
2018-04-28T11:56:48.541Z,19.80
2018-04-28T11:59:16.171Z,19.50
2018-04-28T12:01:43.601Z,19.40
2018-04-28T12:04:11.117Z,19.10
2018-04-28T12:06:38.609Z,18.90
2018-04-28T12:09:06.313Z,18.90
2018-04-28T12:11:34.576Z,18.50
2018-04-28T12:14:02.098Z,18.50
2018-04-28T12:16:29.598Z,18.60
2018-04-28T12:18:57.094Z,18.70
2018-04-28T12:21:24.612Z,18.80
2018-04-28T12:23:52.113Z,18.80
2018-04-28T12:26:19.636Z,18.70
2018-04-28T12:28:47.901Z,18.80
2018-04-28T12:31:15.421Z,18.70
2018-04-28T12:33:42.922Z,18.80
2018-04-28T12:36:10.417Z,18.80
2018-04-28T12:38:37.933Z,18.80
2018-04-28T12:41:05.431Z,18.90
2018-04-28T12:43:32.953Z,18.90
2018-04-28T12:46:00.449Z,18.90
2018-04-28T12:48:27.978Z,18.70
2018-04-28T12:50:55.481Z,18.80
2018-04-28T12:53:22.979Z,18.70
2018-04-28T12:55:50.497Z,18.80
2018-04-28T12:58:17.997Z,18.90
2018-04-28T13:00:45.517Z,18.80
2018-04-28T13:03:13.013Z,19.20
2018-04-28T13:05:40.533Z,19.70
2018-04-28T13:08:08.029Z,19.90
2018-04-28T13:10:35.550Z,20.30
2018-04-28T13:13:03.054Z,20.80
2018-04-28T13:15:30.557Z,21.30
2018-04-28T13:17:58.077Z,21.40
2018-04-28T13:20:25.581Z,21.50
2018-04-28T13:22:53.180Z,21.50
2018-04-28T13:25:21.384Z,21.70
2018-04-28T13:27:48.901Z,21.70
2018-04-28T13:30:16.401Z,22.00
2018-04-28T13:32:43.929Z,22.30
2018-04-28T13:35:11.422Z,22.30
2018-04-28T13:37:39.685Z,22.40
2018-04-28T13:40:07.205Z,22.50
2018-04-28T13:42:34.705Z,23.00
2018-04-28T13:45:02.229Z,24.00
2018-04-28T13:47:29.720Z,25.60
2018-04-28T13:49:57.248Z,26.40
2018-04-28T13:52:24.745Z,26.60
2018-04-28T13:54:52.237Z,26.70
2018-04-28T13:57:19.757Z,27.50
2018-04-28T13:59:48.756Z,26.70
2018-04-28T14:02:16.276Z,26.70
2018-04-28T14:04:43.771Z,26.30
2018-04-28T14:07:11.290Z,26.40
2018-04-28T14:09:38.847Z,26.90
2018-04-28T14:12:07.066Z,26.70
2018-04-28T14:14:34.586Z,26.60
2018-04-28T14:17:02.087Z,26.60
2018-04-28T14:19:29.601Z,26.40
2018-04-28T14:21:57.105Z,25.70
2018-04-28T14:24:24.620Z,25.50
2018-04-28T14:26:52.203Z,25.50
2018-04-28T14:29:20.401Z,25.60
2018-04-28T14:31:47.921Z,25.50
2018-04-28T14:34:15.428Z,25.20
2018-04-28T14:36:43.717Z,24.50
2018-04-28T14:39:11.217Z,24.50
2018-04-28T14:41:38.741Z,24.60
2018-04-28T14:44:06.233Z,24.80
2018-04-28T14:46:33.725Z,25.00
2018-04-28T14:49:01.246Z,25.20
2018-04-28T14:51:28.747Z,25.20
2018-04-28T14:53:57.027Z,24.90
2018-04-28T14:56:25.292Z,24.90
2018-04-28T14:58:52.814Z,24.90
2018-04-28T15:01:20.333Z,24.80
2018-04-28T15:03:48.585Z,24.50
2018-04-28T15:06:16.104Z,24.40
2018-04-28T15:08:43.605Z,24.40
2018-04-28T15:11:11.132Z,24.30
2018-04-28T15:13:38.629Z,23.80
2018-04-28T15:16:06.918Z,23.40
2018-04-28T15:18:35.180Z,23.30
2018-04-28T15:21:02.683Z,23.20
2018-04-28T15:23:30.201Z,23.00
2018-04-28T15:25:58.462Z,22.90
2018-04-28T15:28:25.981Z,22.90
2018-04-28T15:30:53.477Z,22.90
2018-04-28T15:33:21.001Z,23.00
2018-04-28T15:35:48.497Z,23.00
2018-04-28T15:38:17.493Z,22.70
2018-04-28T15:40:45.010Z,22.70
2018-04-28T15:43:12.558Z,22.80
2018-04-28T15:45:40.085Z,22.70
2018-04-28T15:48:08.349Z,22.60
2018-04-28T15:50:35.868Z,22.60
2018-04-28T15:53:03.361Z,22.70
2018-04-28T15:55:30.880Z,22.70
2018-04-28T15:57:58.377Z,22.70
2018-04-28T16:00:25.878Z,22.50
2018-04-28T16:02:53.400Z,22.20
2018-04-28T16:05:20.902Z,22.20
2018-04-28T16:07:48.433Z,22.10
2018-04-28T16:10:16.693Z,22.00
2018-04-28T16:12:44.217Z,22.00
2018-04-28T16:15:11.721Z,22.00
2018-04-28T16:17:39.237Z,22.10
2018-04-28T16:20:06.733Z,22.10
2018-04-28T16:22:34.230Z,22.20
2018-04-28T16:25:01.762Z,22.20
2018-04-28T16:27:30.105Z,22.00
2018-04-28T16:29:58.328Z,21.90
2018-04-28T16:32:26.593Z,21.70
2018-04-28T16:34:54.882Z,21.60
2018-04-28T16:37:22.385Z,21.50
2018-04-28T16:39:49.885Z,21.50
2018-04-28T16:42:17.404Z,21.60
2018-04-28T16:44:44.900Z,21.70
2018-04-28T16:47:12.421Z,21.80
2018-04-28T16:49:39.921Z,21.90
2018-04-28T16:52:08.209Z,22.00
2018-04-28T16:54:36.473Z,22.00
2018-04-28T16:57:04.765Z,22.10
2018-04-28T16:59:33.034Z,22.20
2018-04-28T17:02:01.297Z,22.20
2018-04-28T17:04:28.821Z,22.10
2018-04-28T17:06:56.317Z,22.20
2018-04-28T17:09:23.837Z,22.20
2018-04-28T17:11:51.333Z,22.20
2018-04-28T17:14:18.853Z,22.20
2018-04-28T17:16:46.345Z,22.10
2018-04-28T17:19:13.844Z,22.10
2018-04-28T17:21:41.365Z,22.00
2018-04-28T17:24:08.869Z,22.00
2018-04-28T17:26:36.393Z,21.90
2018-04-28T17:29:04.658Z,21.70
2018-04-28T17:31:32.182Z,21.70
2018-04-28T17:33:59.685Z,21.60
2018-04-28T17:36:27.944Z,21.40
2018-04-28T17:38:55.477Z,21.40
2018-04-28T17:41:22.979Z,21.40
2018-04-28T17:43:51.483Z,21.20
2018-04-28T17:46:18.985Z,21.20
2018-04-28T17:48:46.509Z,21.10
2018-04-28T17:51:14.004Z,21.00
2018-04-28T17:53:41.497Z,20.90
2018-04-28T17:56:09.782Z,20.70
2018-04-28T17:58:37.281Z,20.70
2018-04-28T18:01:04.805Z,20.60
2018-04-28T18:03:32.305Z,20.60
2018-04-28T18:05:59.829Z,20.50
2018-04-28T18:08:27.330Z,20.40
2018-04-28T18:10:54.832Z,20.30
2018-04-28T18:13:23.117Z,20.10
2018-04-28T18:15:50.608Z,20.10
2018-04-28T18:18:18.153Z,20.00
2018-04-28T18:20:45.645Z,19.90
2018-04-28T18:23:13.161Z,19.80
2018-04-28T18:25:40.660Z,19.80
2018-04-28T18:28:08.160Z,19.70
2018-04-28T18:30:36.733Z,19.60
2018-04-28T18:33:04.996Z,19.50
2018-04-28T18:35:32.518Z,19.50
2018-04-28T18:38:00.017Z,19.50
2018-04-28T18:40:27.545Z,19.40
2018-04-28T18:42:55.046Z,19.40
2018-04-28T18:45:23.315Z,19.20
2018-04-28T18:47:51.605Z,19.20
2018-04-28T18:50:19.869Z,19.10
2018-04-28T18:52:47.394Z,19.10
2018-04-28T18:55:14.893Z,19.10
2018-04-28T18:57:43.182Z,19.00
2018-04-28T19:00:11.445Z,19.00
2018-04-28T19:02:38.969Z,18.90
2018-04-28T19:05:06.463Z,18.90
2018-04-28T19:07:33.961Z,18.70
2018-04-28T19:10:01.476Z,18.70
2018-04-28T19:12:28.978Z,18.60
2018-04-28T19:14:56.496Z,18.60
2018-04-28T19:17:23.994Z,18.50
2018-04-28T19:19:51.521Z,18.50
2018-04-28T19:22:19.785Z,18.30
2018-04-28T19:24:48.063Z,18.20
2018-04-28T19:27:15.586Z,18.20
2018-04-28T19:29:43.084Z,18.20
2018-04-28T19:32:11.376Z,18.20
2018-04-28T19:34:39.636Z,18.20
2018-04-28T19:37:07.152Z,18.20
2018-04-28T19:39:34.652Z,18.20
2018-04-28T19:42:02.173Z,18.20
2018-04-28T19:44:29.673Z,18.10
2018-04-28T19:46:57.174Z,18.10
2018-04-28T19:49:24.697Z,18.10
2018-04-28T19:51:52.960Z,18.10
2018-04-28T19:54:20.523Z,18.00
2018-04-28T19:56:47.996Z,18.00
2018-04-28T19:59:16.290Z,18.00
2018-04-28T20:01:43.789Z,17.90
2018-04-28T20:04:11.309Z,17.80
2018-04-28T20:06:38.808Z,17.80
2018-04-28T20:09:06.308Z,17.80
2018-04-28T20:11:34.597Z,17.70
2018-04-28T20:14:02.867Z,17.60
2018-04-28T20:16:31.238Z,17.50
2018-04-28T20:18:58.685Z,17.50
2018-04-28T20:21:26.217Z,17.50
2018-04-28T20:24:05.464Z,17.50
2018-04-28T20:26:32.985Z,17.40
2018-04-28T20:29:00.481Z,17.40
2018-04-28T20:31:28.009Z,17.40
2018-04-28T20:33:55.509Z,17.40
2018-04-28T20:36:23.004Z,17.30
2018-04-28T20:38:50.540Z,17.30
2018-04-28T20:41:18.813Z,17.20
2018-04-28T20:43:46.338Z,17.20
2018-04-28T20:46:13.833Z,17.20
2018-04-28T20:48:42.121Z,17.20
2018-04-28T20:51:10.377Z,17.10
2018-04-28T20:53:37.873Z,17.10
2018-04-28T20:56:05.392Z,17.10
2018-04-28T20:58:32.893Z,17.00
2018-04-28T21:01:00.413Z,17.10
2018-04-28T21:03:27.913Z,17.00
2018-04-28T21:05:55.433Z,17.00
2018-04-28T21:08:22.936Z,17.00
2018-04-28T21:10:50.434Z,16.90
2018-04-28T21:13:19.457Z,16.70
2018-04-28T21:15:47.721Z,16.80
2018-04-28T21:18:16.009Z,16.70
2018-04-28T21:20:44.273Z,16.70
2018-04-28T21:23:11.797Z,16.70
2018-04-28T21:25:39.293Z,16.70
2018-04-28T21:28:06.818Z,16.60
2018-04-28T21:30:34.325Z,16.50
2018-04-28T21:33:02.601Z,16.30
2018-04-28T21:35:30.898Z,16.30
2018-04-28T21:37:58.397Z,16.30
2018-04-28T21:40:25.919Z,16.30
2018-04-28T21:42:53.420Z,16.20
2018-04-28T21:45:20.945Z,16.10
2018-04-28T21:47:48.442Z,16.00
2018-04-28T21:50:15.969Z,16.00
2018-04-28T21:52:43.465Z,15.90
2018-04-28T21:55:10.966Z,15.90
2018-04-28T21:57:38.485Z,15.90
2018-04-28T22:00:05.985Z,15.90
2018-04-28T22:02:33.504Z,15.80
2018-04-28T22:05:01.001Z,15.80
2018-04-28T22:07:28.521Z,15.80
2018-04-28T22:09:56.129Z,15.80
2018-04-28T22:12:23.653Z,15.80
2018-04-28T22:14:51.917Z,15.80
2018-04-28T22:17:19.408Z,15.70
2018-04-28T22:19:46.929Z,15.80
2018-04-28T22:22:14.424Z,15.80
2018-04-28T22:24:41.940Z,15.80
2018-04-28T22:27:09.437Z,15.80
2018-04-28T22:29:37.728Z,15.90
2018-04-28T22:32:05.233Z,15.90
2018-04-28T22:34:32.749Z,15.90
2018-04-28T22:37:00.248Z,15.90
2018-04-28T22:39:27.745Z,16.00
2018-04-28T22:41:56.033Z,16.00
2018-04-28T22:44:23.537Z,16.00
2018-04-28T22:46:51.061Z,16.00
2018-04-28T22:49:18.557Z,16.00
2018-04-28T22:51:46.080Z,16.00
2018-04-28T22:54:13.581Z,15.80
2018-04-28T22:56:41.869Z,15.70
2018-04-28T22:59:09.376Z,15.60
2018-04-28T23:01:36.877Z,15.60
2018-04-28T23:04:04.397Z,15.60
2018-04-28T23:06:31.897Z,15.60
2018-04-28T23:08:59.417Z,15.60
2018-04-28T23:11:26.913Z,15.60
2018-04-28T23:13:55.196Z,15.60
2018-04-28T23:16:22.693Z,15.60
2018-04-28T23:18:50.222Z,15.60
2018-04-28T23:21:18.488Z,15.50
2018-04-28T23:23:46.018Z,15.50
2018-04-28T23:26:13.514Z,15.50
2018-04-28T23:28:41.038Z,15.50
2018-04-28T23:31:08.532Z,15.50
2018-04-28T23:33:36.822Z,15.60
2018-04-28T23:36:05.092Z,15.60
2018-04-28T23:38:33.353Z,15.60
2018-04-28T23:41:01.638Z,15.60
2018-04-28T23:43:29.134Z,15.60
2018-04-28T23:45:56.649Z,15.50
2018-04-28T23:48:24.908Z,15.50
2018-04-28T23:50:52.440Z,15.50
2018-04-28T23:53:19.939Z,15.50
2018-04-28T23:55:47.464Z,15.50
2018-04-28T23:58:14.961Z,15.50
